Terminal Aerodrome Forecast
Issued by NWS

Home | Current Version | Previous Version | Text Only | Print | Product List | Glossary Off
Versions: 1 2 3 4 5 6 7 8 9 10 11 12 13 14 15 16 17 18 19 20 21

284
FTUS43 KABR 231910 AAA
TAFATY
TAF AMD
KATY 231910Z 2319/2418 31020G26KT P6SM OVC035
     FM232100 31019G27KT P6SM BKN050
     FM240300 30007KT P6SM SKC
     FM241400 30017G27KT P6SM SCT090=

USA.gov is the U.S. government's official web portal to all federal, state and local government web resources and services.